1CD1 weather

Reed Airport
Nunn, Colorado, United States

Public forecast

Using degrees Fahrenheit for public forecast. Weather courtesy of forecast.io.

Closest aviation weather report (METAR) to Reed Airport

Closest report is Northern Colorado Regional Airport, 15.8 nm (29.2 km) SSW. Retrieved 2020/02/22 03:56 UTC (27 minutes ago):

KFNL 220356Z AUTO 01007KT 10SM CLR 02/M09 A3014 RMK AO2 SLP232 T00221089 FZRANO

Closest aviation forecast (TAF) to Reed Airport

Closest forecast is Cheyenne Regional Jerry Olson Field, 28.1 nm (52.0 km) N. Retrieved 2020-02-22 00:22 UTC (4 hours ago):

TAF KCYS 212320Z 2200/2224 24009KT P6SM SKC FM220600 28020G30KT P6SM SKC FM221600 26015G25KT P6SM SKC